sensor_id;sensor_type;location;lat;lon;timestamp;P1;durP1;ratioP1;P2;durP2;ratioP2
61435;SDS011;47304;47.456;19.160;2023-05-01T00:00:21;9.30;;;4.70;;
61435;SDS011;47304;47.456;19.160;2023-05-01T00:02:47;7.90;;;4.40;;
61435;SDS011;47304;47.456;19.160;2023-05-01T00:05:14;7.90;;;4.60;;
61435;SDS011;47304;47.456;19.160;2023-05-01T00:07:40;8.70;;;4.90;;
61435;SDS011;47304;47.456;19.160;2023-05-01T00:10:07;7.90;;;4.50;;
61435;SDS011;47304;47.456;19.160;2023-05-01T00:12:34;8.90;;;4.50;;
61435;SDS011;47304;47.456;19.160;2023-05-01T00:15:00;9.90;;;5.20;;
61435;SDS011;47304;47.456;19.160;2023-05-01T00:17:27;11.70;;;5.00;;
61435;SDS011;47304;47.456;19.160;2023-05-01T00:19:53;9.80;;;5.00;;
61435;SDS011;47304;47.456;19.160;2023-05-01T00:22:20;8.40;;;4.40;;
61435;SDS011;47304;47.456;19.160;2023-05-01T00:24:47;10.70;;;4.90;;
61435;SDS011;47304;47.456;19.160;2023-05-01T00:27:13;7.70;;;4.60;;
61435;SDS011;47304;47.456;19.160;2023-05-01T00:29:40;7.90;;;4.30;;
61435;SDS011;47304;47.456;19.160;2023-05-01T00:32:06;8.20;;;4.60;;
61435;SDS011;47304;47.456;19.160;2023-05-01T00:34:33;7.80;;;4.60;;
61435;SDS011;47304;47.456;19.160;2023-05-01T00:36:59;8.10;;;4.60;;
61435;SDS011;47304;47.456;19.160;2023-05-01T00:39:26;8.70;;;4.90;;
61435;SDS011;47304;47.456;19.160;2023-05-01T00:41:52;9.70;;;5.00;;
61435;SDS011;47304;47.456;19.160;2023-05-01T00:44:19;8.90;;;4.90;;
61435;SDS011;47304;47.456;19.160;2023-05-01T00:46:45;9.70;;;4.90;;
61435;SDS011;47304;47.456;19.160;2023-05-01T00:49:12;11.90;;;5.40;;
61435;SDS011;47304;47.456;19.160;2023-05-01T00:51:38;8.80;;;5.00;;
61435;SDS011;47304;47.456;19.160;2023-05-01T00:54:05;9.30;;;5.00;;
61435;SDS011;47304;47.456;19.160;2023-05-01T00:56:32;9.90;;;5.20;;
61435;SDS011;47304;47.456;19.160;2023-05-01T00:58:59;9.00;;;5.30;;
61435;SDS011;47304;47.456;19.160;2023-05-01T01:01:25;11.30;;;5.10;;
61435;SDS011;47304;47.456;19.160;2023-05-01T01:03:52;10.60;;;5.00;;
61435;SDS011;47304;47.456;19.160;2023-05-01T01:06:32;10.30;;;5.60;;
61435;SDS011;47304;47.456;19.160;2023-05-01T01:14:47;8.90;;;4.90;;
61435;SDS011;47304;47.456;19.160;2023-05-01T01:17:35;10.50;;;5.20;;
61435;SDS011;47304;47.456;19.160;2023-05-01T01:23:12;9.10;;;4.90;;
61435;SDS011;47304;47.456;19.160;2023-05-01T01:31:19;10.20;;;5.10;;
61435;SDS011;47304;47.456;19.160;2023-05-01T01:33:59;9.80;;;5.30;;
61435;SDS011;47304;47.456;19.160;2023-05-01T01:36:45;8.30;;;4.90;;
61435;SDS011;47304;47.456;19.160;2023-05-01T01:39:42;9.10;;;5.30;;
61435;SDS011;47304;47.456;19.160;2023-05-01T01:42:12;9.30;;;5.10;;
61435;SDS011;47304;47.456;19.160;2023-05-01T01:44:46;11.60;;;6.00;;
61435;SDS011;47304;47.456;19.160;2023-05-01T01:47:17;10.70;;;5.30;;
61435;SDS011;47304;47.456;19.160;2023-05-01T01:49:46;9.20;;;5.30;;
61435;SDS011;47304;47.456;19.160;2023-05-01T01:52:16;11.80;;;5.80;;
61435;SDS011;47304;47.456;19.160;2023-05-01T01:54:47;9.50;;;5.80;;
61435;SDS011;47304;47.456;19.160;2023-05-01T01:57:17;10.80;;;5.60;;
61435;SDS011;47304;47.456;19.160;2023-05-01T01:59:46;10.60;;;5.50;;
61435;SDS011;47304;47.456;19.160;2023-05-01T02:02:15;9.90;;;5.20;;
61435;SDS011;47304;47.456;19.160;2023-05-01T02:04:44;11.30;;;5.90;;
61435;SDS011;47304;47.456;19.160;2023-05-01T02:07:12;10.60;;;5.20;;
61435;SDS011;47304;47.456;19.160;2023-05-01T02:09:41;10.00;;;5.70;;
61435;SDS011;47304;47.456;19.160;2023-05-01T02:12:10;11.00;;;5.50;;
61435;SDS011;47304;47.456;19.160;2023-05-01T02:14:38;9.20;;;5.80;;
61435;SDS011;47304;47.456;19.160;2023-05-01T02:17:06;10.90;;;5.50;;
61435;SDS011;47304;47.456;19.160;2023-05-01T02:19:35;9.50;;;5.30;;
61435;SDS011;47304;47.456;19.160;2023-05-01T02:22:04;9.90;;;5.80;;
61435;SDS011;47304;47.456;19.160;2023-05-01T02:24:32;9.60;;;5.60;;
61435;SDS011;47304;47.456;19.160;2023-05-01T02:27:02;9.10;;;5.40;;
61435;SDS011;47304;47.456;19.160;2023-05-01T02:29:33;9.70;;;5.50;;
61435;SDS011;47304;47.456;19.160;2023-05-01T02:31:59;10.00;;;5.40;;
61435;SDS011;47304;47.456;19.160;2023-05-01T02:34:26;9.30;;;5.60;;
61435;SDS011;47304;47.456;19.160;2023-05-01T02:36:52;11.00;;;6.20;;
61435;SDS011;47304;47.456;19.160;2023-05-01T02:39:19;12.30;;;6.10;;
61435;SDS011;47304;47.456;19.160;2023-05-01T02:41:45;11.40;;;5.80;;
61435;SDS011;47304;47.456;19.160;2023-05-01T02:44:13;10.90;;;6.00;;
61435;SDS011;47304;47.456;19.160;2023-05-01T02:46:41;10.80;;;6.20;;
61435;SDS011;47304;47.456;19.160;2023-05-01T02:49:10;11.40;;;5.50;;
61435;SDS011;47304;47.456;19.160;2023-05-01T02:51:37;10.70;;;5.70;;
61435;SDS011;47304;47.456;19.160;2023-05-01T02:54:05;11.60;;;6.50;;
61435;SDS011;47304;47.456;19.160;2023-05-01T02:56:33;10.00;;;6.10;;
61435;SDS011;47304;47.456;19.160;2023-05-01T02:59:00;10.20;;;6.00;;
61435;SDS011;47304;47.456;19.160;2023-05-01T03:01:26;10.20;;;6.60;;
61435;SDS011;47304;47.456;19.160;2023-05-01T03:03:53;12.00;;;6.50;;
61435;SDS011;47304;47.456;19.160;2023-05-01T03:06:19;11.90;;;6.60;;
61435;SDS011;47304;47.456;19.160;2023-05-01T03:08:46;12.30;;;5.80;;
61435;SDS011;47304;47.456;19.160;2023-05-01T03:11:12;11.90;;;6.30;;
61435;SDS011;47304;47.456;19.160;2023-05-01T03:13:39;12.00;;;6.10;;
61435;SDS011;47304;47.456;19.160;2023-05-01T03:16:06;11.40;;;6.20;;
61435;SDS011;47304;47.456;19.160;2023-05-01T03:18:32;10.30;;;6.00;;
61435;SDS011;47304;47.456;19.160;2023-05-01T03:20:59;11.00;;;6.20;;
61435;SDS011;47304;47.456;19.160;2023-05-01T03:23:25;10.30;;;5.90;;
61435;SDS011;47304;47.456;19.160;2023-05-01T03:25:52;9.70;;;5.80;;
61435;SDS011;47304;47.456;19.160;2023-05-01T03:28:18;10.00;;;5.70;;
61435;SDS011;47304;47.456;19.160;2023-05-01T03:30:44;10.40;;;6.10;;
61435;SDS011;47304;47.456;19.160;2023-05-01T03:33:11;11.20;;;6.00;;
61435;SDS011;47304;47.456;19.160;2023-05-01T03:35:37;11.50;;;6.40;;
61435;SDS011;47304;47.456;19.160;2023-05-01T03:38:04;10.70;;;5.80;;
61435;SDS011;47304;47.456;19.160;2023-05-01T03:40:31;9.20;;;5.90;;
61435;SDS011;47304;47.456;19.160;2023-05-01T03:42:57;10.50;;;5.90;;
61435;SDS011;47304;47.456;19.160;2023-05-01T03:45:24;11.10;;;6.50;;
61435;SDS011;47304;47.456;19.160;2023-05-01T03:47:50;11.30;;;5.80;;
61435;SDS011;47304;47.456;19.160;2023-05-01T03:50:17;10.00;;;5.20;;
61435;SDS011;47304;47.456;19.160;2023-05-01T03:52:43;10.40;;;5.20;;
61435;SDS011;47304;47.456;19.160;2023-05-01T03:55:10;9.60;;;5.40;;
61435;SDS011;47304;47.456;19.160;2023-05-01T03:57:36;10.70;;;5.20;;
61435;SDS011;47304;47.456;19.160;2023-05-01T04:00:03;10.10;;;5.00;;
61435;SDS011;47304;47.456;19.160;2023-05-01T04:02:30;8.80;;;4.90;;
61435;SDS011;47304;47.456;19.160;2023-05-01T04:04:56;10.20;;;4.60;;
61435;SDS011;47304;47.456;19.160;2023-05-01T04:07:23;9.70;;;5.20;;
61435;SDS011;47304;47.456;19.160;2023-05-01T04:09:49;10.00;;;5.00;;
61435;SDS011;47304;47.456;19.160;2023-05-01T04:12:16;10.00;;;5.00;;
61435;SDS011;47304;47.456;19.160;2023-05-01T04:14:43;8.90;;;4.50;;
61435;SDS011;47304;47.456;19.160;2023-05-01T04:17:09;10.50;;;4.80;;
61435;SDS011;47304;47.456;19.160;2023-05-01T04:19:35;8.80;;;4.90;;
61435;SDS011;47304;47.456;19.160;2023-05-01T04:22:02;11.10;;;5.40;;
61435;SDS011;47304;47.456;19.160;2023-05-01T04:24:28;9.40;;;5.10;;
61435;SDS011;47304;47.456;19.160;2023-05-01T04:26:55;11.50;;;5.20;;
61435;SDS011;47304;47.456;19.160;2023-05-01T04:29:22;11.20;;;5.80;;
61435;SDS011;47304;47.456;19.160;2023-05-01T04:31:48;11.70;;;5.60;;
61435;SDS011;47304;47.456;19.160;2023-05-01T04:34:15;9.20;;;5.80;;
61435;SDS011;47304;47.456;19.160;2023-05-01T04:36:41;11.00;;;5.60;;
61435;SDS011;47304;47.456;19.160;2023-05-01T04:39:08;11.60;;;5.60;;
61435;SDS011;47304;47.456;19.160;2023-05-01T04:41:34;10.80;;;5.90;;
61435;SDS011;47304;47.456;19.160;2023-05-01T04:44:01;11.00;;;5.60;;
61435;SDS011;47304;47.456;19.160;2023-05-01T04:46:27;10.20;;;5.30;;
61435;SDS011;47304;47.456;19.160;2023-05-01T04:48:54;10.30;;;4.40;;
61435;SDS011;47304;47.456;19.160;2023-05-01T04:51:20;10.90;;;4.90;;
61435;SDS011;47304;47.456;19.160;2023-05-01T04:53:47;9.50;;;5.40;;
61435;SDS011;47304;47.456;19.160;2023-05-01T04:56:13;12.00;;;4.90;;
61435;SDS011;47304;47.456;19.160;2023-05-01T04:58:40;10.90;;;4.60;;
61435;SDS011;47304;47.456;19.160;2023-05-01T05:01:06;7.70;;;4.20;;
61435;SDS011;47304;47.456;19.160;2023-05-01T05:03:33;15.40;;;5.50;;
61435;SDS011;47304;47.456;19.160;2023-05-01T05:06:00;11.50;;;4.70;;
61435;SDS011;47304;47.456;19.160;2023-05-01T05:08:26;9.80;;;4.30;;
61435;SDS011;47304;47.456;19.160;2023-05-01T05:10:56;8.20;;;4.00;;
61435;SDS011;47304;47.456;19.160;2023-05-01T05:13:24;7.80;;;4.00;;
61435;SDS011;47304;47.456;19.160;2023-05-01T05:15:51;8.50;;;4.10;;
61435;SDS011;47304;47.456;19.160;2023-05-01T05:18:17;8.30;;;4.00;;
61435;SDS011;47304;47.456;19.160;2023-05-01T05:20:44;9.20;;;4.20;;
61435;SDS011;47304;47.456;19.160;2023-05-01T05:23:11;7.90;;;3.90;;
61435;SDS011;47304;47.456;19.160;2023-05-01T05:25:37;9.00;;;3.90;;
61435;SDS011;47304;47.456;19.160;2023-05-01T05:28:04;7.90;;;3.70;;
61435;SDS011;47304;47.456;19.160;2023-05-01T05:30:30;11.80;;;3.60;;
61435;SDS011;47304;47.456;19.160;2023-05-01T05:32:57;7.60;;;3.20;;
61435;SDS011;47304;47.456;19.160;2023-05-01T05:35:23;9.10;;;3.40;;
61435;SDS011;47304;47.456;19.160;2023-05-01T05:37:50;7.20;;;3.00;;
61435;SDS011;47304;47.456;19.160;2023-05-01T05:40:16;8.40;;;3.40;;
61435;SDS011;47304;47.456;19.160;2023-05-01T05:42:43;9.70;;;3.30;;
61435;SDS011;47304;47.456;19.160;2023-05-01T05:45:09;7.10;;;2.50;;
61435;SDS011;47304;47.456;19.160;2023-05-01T05:47:36;7.20;;;2.90;;
61435;SDS011;47304;47.456;19.160;2023-05-01T05:50:03;6.00;;;2.50;;
61435;SDS011;47304;47.456;19.160;2023-05-01T05:52:31;6.40;;;2.60;;
61435;SDS011;47304;47.456;19.160;2023-05-01T05:54:58;6.00;;;2.60;;
61435;SDS011;47304;47.456;19.160;2023-05-01T05:57:24;8.70;;;2.80;;
61435;SDS011;47304;47.456;19.160;2023-05-01T05:59:51;6.50;;;2.60;;
61435;SDS011;47304;47.456;19.160;2023-05-01T06:02:17;6.90;;;2.60;;
61435;SDS011;47304;47.456;19.160;2023-05-01T06:04:44;8.10;;;2.60;;
61435;SDS011;47304;47.456;19.160;2023-05-01T06:07:11;6.70;;;2.50;;
61435;SDS011;47304;47.456;19.160;2023-05-01T06:09:37;8.90;;;2.40;;
61435;SDS011;47304;47.456;19.160;2023-05-01T06:12:04;6.80;;;2.50;;
61435;SDS011;47304;47.456;19.160;2023-05-01T06:14:30;7.10;;;2.30;;
61435;SDS011;47304;47.456;19.160;2023-05-01T06:16:57;5.60;;;2.30;;
61435;SDS011;47304;47.456;19.160;2023-05-01T06:19:23;7.00;;;2.70;;
61435;SDS011;47304;47.456;19.160;2023-05-01T06:21:50;7.00;;;2.70;;
61435;SDS011;47304;47.456;19.160;2023-05-01T06:24:16;6.30;;;2.60;;
61435;SDS011;47304;47.456;19.160;2023-05-01T06:26:43;6.60;;;2.70;;
61435;SDS011;47304;47.456;19.160;2023-05-01T06:29:10;6.90;;;2.40;;
61435;SDS011;47304;47.456;19.160;2023-05-01T06:31:36;6.50;;;2.50;;
61435;SDS011;47304;47.456;19.160;2023-05-01T06:34:03;5.90;;;2.60;;
61435;SDS011;47304;47.456;19.160;2023-05-01T06:36:29;6.40;;;2.30;;
61435;SDS011;47304;47.456;19.160;2023-05-01T06:38:56;8.60;;;2.30;;
61435;SDS011;47304;47.456;19.160;2023-05-01T06:41:22;7.50;;;2.30;;
61435;SDS011;47304;47.456;19.160;2023-05-01T06:43:49;6.10;;;2.60;;
61435;SDS011;47304;47.456;19.160;2023-05-01T06:46:18;6.50;;;2.60;;
61435;SDS011;47304;47.456;19.160;2023-05-01T06:48:45;7.60;;;2.60;;
61435;SDS011;47304;47.456;19.160;2023-05-01T06:51:11;7.20;;;2.40;;
61435;SDS011;47304;47.456;19.160;2023-05-01T06:53:38;9.10;;;2.70;;
61435;SDS011;47304;47.456;19.160;2023-05-01T06:56:04;8.80;;;2.50;;
61435;SDS011;47304;47.456;19.160;2023-05-01T06:58:31;6.00;;;2.20;;
61435;SDS011;47304;47.456;19.160;2023-05-01T07:00:57;7.30;;;2.30;;
61435;SDS011;47304;47.456;19.160;2023-05-01T07:03:24;12.70;;;5.80;;
61435;SDS011;47304;47.456;19.160;2023-05-01T07:05:50;7.30;;;3.00;;
61435;SDS011;47304;47.456;19.160;2023-05-01T07:08:17;5.90;;;2.50;;
61435;SDS011;47304;47.456;19.160;2023-05-01T07:10:43;8.10;;;3.00;;
61435;SDS011;47304;47.456;19.160;2023-05-01T07:13:10;5.80;;;2.40;;
61435;SDS011;47304;47.456;19.160;2023-05-01T07:15:37;6.90;;;2.50;;
61435;SDS011;47304;47.456;19.160;2023-05-01T07:18:03;6.60;;;2.50;;
61435;SDS011;47304;47.456;19.160;2023-05-01T07:20:30;5.80;;;2.40;;
61435;SDS011;47304;47.456;19.160;2023-05-01T07:22:59;6.70;;;2.30;;
61435;SDS011;47304;47.456;19.160;2023-05-01T07:25:25;6.60;;;2.50;;
61435;SDS011;47304;47.456;19.160;2023-05-01T07:27:52;6.20;;;2.50;;
61435;SDS011;47304;47.456;19.160;2023-05-01T07:30:18;10.80;;;2.60;;
61435;SDS011;47304;47.456;19.160;2023-05-01T07:32:45;5.80;;;2.20;;
61435;SDS011;47304;47.456;19.160;2023-05-01T07:35:11;5.60;;;2.20;;
61435;SDS011;47304;47.456;19.160;2023-05-01T07:37:38;6.70;;;2.10;;
61435;SDS011;47304;47.456;19.160;2023-05-01T07:40:05;6.20;;;2.10;;
61435;SDS011;47304;47.456;19.160;2023-05-01T07:42:32;8.20;;;2.40;;
61435;SDS011;47304;47.456;19.160;2023-05-01T07:44:58;10.10;;;2.70;;
61435;SDS011;47304;47.456;19.160;2023-05-01T07:47:25;6.60;;;2.30;;
61435;SDS011;47304;47.456;19.160;2023-05-01T07:49:51;8.10;;;2.90;;
61435;SDS011;47304;47.456;19.160;2023-05-01T07:52:18;9.00;;;2.40;;
61435;SDS011;47304;47.456;19.160;2023-05-01T07:54:48;6.60;;;2.60;;
61435;SDS011;47304;47.456;19.160;2023-05-01T07:57:15;5.10;;;2.50;;
61435;SDS011;47304;47.456;19.160;2023-05-01T07:59:42;7.30;;;2.30;;
61435;SDS011;47304;47.456;19.160;2023-05-01T08:02:08;7.50;;;2.40;;
61435;SDS011;47304;47.456;19.160;2023-05-01T08:04:35;7.10;;;2.70;;
61435;SDS011;47304;47.456;19.160;2023-05-01T08:07:01;7.30;;;2.30;;
61435;SDS011;47304;47.456;19.160;2023-05-01T08:09:28;7.60;;;2.70;;
61435;SDS011;47304;47.456;19.160;2023-05-01T08:11:54;7.30;;;2.40;;
61435;SDS011;47304;47.456;19.160;2023-05-01T08:14:21;5.60;;;2.40;;
61435;SDS011;47304;47.456;19.160;2023-05-01T08:16:47;12.60;;;2.90;;
61435;SDS011;47304;47.456;19.160;2023-05-01T08:19:14;5.10;;;2.30;;
61435;SDS011;47304;47.456;19.160;2023-05-01T08:21:40;7.20;;;3.10;;
61435;SDS011;47304;47.456;19.160;2023-05-01T08:24:08;7.00;;;2.20;;
61435;SDS011;47304;47.456;19.160;2023-05-01T08:26:34;6.20;;;2.50;;
61435;SDS011;47304;47.456;19.160;2023-05-01T08:29:01;9.40;;;2.50;;
61435;SDS011;47304;47.456;19.160;2023-05-01T08:31:27;6.20;;;2.60;;
61435;SDS011;47304;47.456;19.160;2023-05-01T08:33:54;7.70;;;2.20;;
61435;SDS011;47304;47.456;19.160;2023-05-01T08:36:21;7.00;;;2.50;;
61435;SDS011;47304;47.456;19.160;2023-05-01T08:38:48;5.10;;;2.00;;
61435;SDS011;47304;47.456;19.160;2023-05-01T08:41:15;6.70;;;2.80;;
61435;SDS011;47304;47.456;19.160;2023-05-01T08:43:45;10.40;;;2.90;;
61435;SDS011;47304;47.456;19.160;2023-05-01T08:46:12;5.60;;;2.20;;
61435;SDS011;47304;47.456;19.160;2023-05-01T08:48:45;5.80;;;2.20;;
61435;SDS011;47304;47.456;19.160;2023-05-01T08:51:12;6.10;;;2.20;;
61435;SDS011;47304;47.456;19.160;2023-05-01T08:53:41;8.60;;;3.90;;
61435;SDS011;47304;47.456;19.160;2023-05-01T08:56:09;12.90;;;5.80;;
61435;SDS011;47304;47.456;19.160;2023-05-01T08:58:37;8.50;;;4.10;;
61435;SDS011;47304;47.456;19.160;2023-05-01T09:01:03;18.40;;;5.00;;
61435;SDS011;47304;47.456;19.160;2023-05-01T09:03:31;12.70;;;6.50;;
61435;SDS011;47304;47.456;19.160;2023-05-01T09:05:58;10.60;;;4.30;;
61435;SDS011;47304;47.456;19.160;2023-05-01T09:08:27;7.30;;;2.90;;
61435;SDS011;47304;47.456;19.160;2023-05-01T09:10:54;6.60;;;2.60;;
61435;SDS011;47304;47.456;19.160;2023-05-01T09:13:23;8.20;;;3.10;;
61435;SDS011;47304;47.456;19.160;2023-05-01T09:15:50;7.30;;;2.80;;
61435;SDS011;47304;47.456;19.160;2023-05-01T09:18:17;9.00;;;3.10;;
61435;SDS011;47304;47.456;19.160;2023-05-01T09:20:43;9.50;;;4.00;;
61435;SDS011;47304;47.456;19.160;2023-05-01T09:23:10;7.10;;;2.40;;
61435;SDS011;47304;47.456;19.160;2023-05-01T09:25:36;7.10;;;2.50;;
61435;SDS011;47304;47.456;19.160;2023-05-01T09:28:03;5.90;;;2.30;;
61435;SDS011;47304;47.456;19.160;2023-05-01T09:30:34;8.80;;;2.60;;
61435;SDS011;47304;47.456;19.160;2023-05-01T09:35:57;6.10;;;2.50;;
61435;SDS011;47304;47.456;19.160;2023-05-01T09:38:24;6.50;;;2.20;;
61435;SDS011;47304;47.456;19.160;2023-05-01T09:40:53;5.50;;;2.10;;
61435;SDS011;47304;47.456;19.160;2023-05-01T09:45:58;6.00;;;2.00;;
61435;SDS011;47304;47.456;19.160;2023-05-01T09:48:29;5.40;;;2.00;;
61435;SDS011;47304;47.456;19.160;2023-05-01T09:50:59;5.70;;;2.20;;
61435;SDS011;47304;47.456;19.160;2023-05-01T09:53:38;6.50;;;2.30;;
61435;SDS011;47304;47.456;19.160;2023-05-01T09:56:05;8.50;;;2.30;;
61435;SDS011;47304;47.456;19.160;2023-05-01T09:58:32;7.30;;;2.50;;
61435;SDS011;47304;47.456;19.160;2023-05-01T10:00:59;9.90;;;4.60;;
61435;SDS011;47304;47.456;19.160;2023-05-01T10:03:25;8.60;;;3.30;;
61435;SDS011;47304;47.456;19.160;2023-05-01T10:05:52;5.90;;;2.40;;
61435;SDS011;47304;47.456;19.160;2023-05-01T10:08:19;7.10;;;2.20;;
61435;SDS011;47304;47.456;19.160;2023-05-01T10:10:45;21.50;;;7.20;;
61435;SDS011;47304;47.456;19.160;2023-05-01T10:13:25;7.20;;;2.30;;
61435;SDS011;47304;47.456;19.160;2023-05-01T10:15:51;5.80;;;2.10;;
61435;SDS011;47304;47.456;19.160;2023-05-01T10:18:18;8.20;;;2.40;;
61435;SDS011;47304;47.456;19.160;2023-05-01T10:20:45;11.10;;;2.80;;
61435;SDS011;47304;47.456;19.160;2023-05-01T10:23:11;18.80;;;4.40;;
61435;SDS011;47304;47.456;19.160;2023-05-01T10:25:38;6.50;;;2.20;;
61435;SDS011;47304;47.456;19.160;2023-05-01T10:28:07;19.30;;;4.60;;
61435;SDS011;47304;47.456;19.160;2023-05-01T10:30:34;7.40;;;2.20;;
61435;SDS011;47304;47.456;19.160;2023-05-01T10:33:01;5.90;;;2.90;;
61435;SDS011;47304;47.456;19.160;2023-05-01T10:35:30;8.00;;;2.40;;
61435;SDS011;47304;47.456;19.160;2023-05-01T10:38:00;5.70;;;2.40;;
61435;SDS011;47304;47.456;19.160;2023-05-01T10:43:13;6.40;;;2.40;;
61435;SDS011;47304;47.456;19.160;2023-05-01T10:45:46;6.30;;;2.00;;
61435;SDS011;47304;47.456;19.160;2023-05-01T10:48:59;6.80;;;2.20;;
61435;SDS011;47304;47.456;19.160;2023-05-01T10:51:06;12.30;;;8.20;;
61435;SDS011;47304;47.456;19.160;2023-05-01T10:53:37;4.90;;;2.20;;
61435;SDS011;47304;47.456;19.160;2023-05-01T10:56:05;5.90;;;2.00;;
61435;SDS011;47304;47.456;19.160;2023-05-01T11:04:01;4.30;;;1.90;;
61435;SDS011;47304;47.456;19.160;2023-05-01T11:06:31;5.40;;;2.00;;
61435;SDS011;47304;47.456;19.160;2023-05-01T11:08:58;4.60;;;1.90;;
61435;SDS011;47304;47.456;19.160;2023-05-01T11:19:50;4.50;;;1.90;;
61435;SDS011;47304;47.456;19.160;2023-05-01T11:21:54;5.20;;;2.10;;
61435;SDS011;47304;47.456;19.160;2023-05-01T11:24:20;5.20;;;1.90;;
61435;SDS011;47304;47.456;19.160;2023-05-01T11:26:56;4.60;;;1.90;;
61435;SDS011;47304;47.456;19.160;2023-05-01T11:29:23;4.70;;;1.80;;
61435;SDS011;47304;47.456;19.160;2023-05-01T11:31:50;3.30;;;1.80;;
61435;SDS011;47304;47.456;19.160;2023-05-01T11:34:17;3.80;;;1.80;;
61435;SDS011;47304;47.456;19.160;2023-05-01T11:36:47;6.80;;;2.60;;
61435;SDS011;47304;47.456;19.160;2023-05-01T11:39:16;7.20;;;2.60;;
61435;SDS011;47304;47.456;19.160;2023-05-01T11:41:43;6.50;;;2.20;;
61435;SDS011;47304;47.456;19.160;2023-05-01T11:44:11;6.10;;;2.20;;
61435;SDS011;47304;47.456;19.160;2023-05-01T11:46:41;5.30;;;1.90;;
61435;SDS011;47304;47.456;19.160;2023-05-01T11:49:07;4.10;;;2.00;;
61435;SDS011;47304;47.456;19.160;2023-05-01T11:51:34;4.20;;;1.90;;
61435;SDS011;47304;47.456;19.160;2023-05-01T11:54:01;3.20;;;1.70;;
61435;SDS011;47304;47.456;19.160;2023-05-01T11:56:32;5.40;;;2.00;;
61435;SDS011;47304;47.456;19.160;2023-05-01T11:59:08;5.10;;;2.30;;
61435;SDS011;47304;47.456;19.160;2023-05-01T12:01:39;4.80;;;1.90;;
61435;SDS011;47304;47.456;19.160;2023-05-01T12:04:08;5.20;;;2.00;;
61435;SDS011;47304;47.456;19.160;2023-05-01T12:06:39;6.50;;;2.20;;
61435;SDS011;47304;47.456;19.160;2023-05-01T12:09:07;4.70;;;2.10;;
61435;SDS011;47304;47.456;19.160;2023-05-01T12:11:33;5.70;;;2.10;;
61435;SDS011;47304;47.456;19.160;2023-05-01T12:14:00;4.70;;;2.10;;
61435;SDS011;47304;47.456;19.160;2023-05-01T12:16:27;6.80;;;2.20;;
61435;SDS011;47304;47.456;19.160;2023-05-01T12:18:55;5.70;;;1.90;;
61435;SDS011;47304;47.456;19.160;2023-05-01T12:21:22;4.90;;;1.90;;
61435;SDS011;47304;47.456;19.160;2023-05-01T12:23:48;6.10;;;2.00;;
61435;SDS011;47304;47.456;19.160;2023-05-01T12:26:19;4.30;;;2.10;;
61435;SDS011;47304;47.456;19.160;2023-05-01T12:28:54;4.20;;;2.00;;
61435;SDS011;47304;47.456;19.160;2023-05-01T12:31:25;5.90;;;2.20;;
61435;SDS011;47304;47.456;19.160;2023-05-01T12:33:56;4.50;;;2.00;;
61435;SDS011;47304;47.456;19.160;2023-05-01T12:36:24;4.40;;;2.10;;
61435;SDS011;47304;47.456;19.160;2023-05-01T12:38:56;5.80;;;2.70;;
61435;SDS011;47304;47.456;19.160;2023-05-01T12:41:41;4.60;;;2.00;;
61435;SDS011;47304;47.456;19.160;2023-05-01T12:44:21;4.70;;;2.00;;
61435;SDS011;47304;47.456;19.160;2023-05-01T12:49:19;4.60;;;1.90;;
61435;SDS011;47304;47.456;19.160;2023-05-01T12:51:46;4.10;;;1.80;;
61435;SDS011;47304;47.456;19.160;2023-05-01T12:54:21;6.40;;;1.90;;
61435;SDS011;47304;47.456;19.160;2023-05-01T12:56:48;4.80;;;1.90;;
61435;SDS011;47304;47.456;19.160;2023-05-01T12:59:21;4.20;;;2.00;;
61435;SDS011;47304;47.456;19.160;2023-05-01T13:02:27;8.80;;;2.20;;
61435;SDS011;47304;47.456;19.160;2023-05-01T13:04:43;5.90;;;2.40;;
61435;SDS011;47304;47.456;19.160;2023-05-01T13:07:11;5.70;;;2.00;;
61435;SDS011;47304;47.456;19.160;2023-05-01T13:09:50;5.20;;;2.10;;
61435;SDS011;47304;47.456;19.160;2023-05-01T13:12:19;6.00;;;2.20;;
61435;SDS011;47304;47.456;19.160;2023-05-01T13:14:45;4.60;;;2.00;;
61435;SDS011;47304;47.456;19.160;2023-05-01T13:17:12;6.10;;;1.90;;
61435;SDS011;47304;47.456;19.160;2023-05-01T13:19:55;5.30;;;2.20;;
61435;SDS011;47304;47.456;19.160;2023-05-01T13:22:38;4.60;;;1.90;;
61435;SDS011;47304;47.456;19.160;2023-05-01T13:25:15;5.90;;;2.10;;
61435;SDS011;47304;47.456;19.160;2023-05-01T13:27:50;4.40;;;2.10;;
61435;SDS011;47304;47.456;19.160;2023-05-01T13:30:20;5.60;;;1.70;;
61435;SDS011;47304;47.456;19.160;2023-05-01T13:32:56;5.40;;;2.40;;
61435;SDS011;47304;47.456;19.160;2023-05-01T13:35:23;4.20;;;1.80;;
61435;SDS011;47304;47.456;19.160;2023-05-01T13:37:51;4.40;;;1.80;;
61435;SDS011;47304;47.456;19.160;2023-05-01T13:40:18;4.90;;;2.00;;
61435;SDS011;47304;47.456;19.160;2023-05-01T13:42:45;5.60;;;2.00;;
61435;SDS011;47304;47.456;19.160;2023-05-01T13:45:13;5.60;;;2.00;;
61435;SDS011;47304;47.456;19.160;2023-05-01T13:47:44;3.60;;;1.80;;
61435;SDS011;47304;47.456;19.160;2023-05-01T13:50:13;4.40;;;1.80;;
61435;SDS011;47304;47.456;19.160;2023-05-01T13:52:42;4.20;;;1.70;;
61435;SDS011;47304;47.456;19.160;2023-05-01T13:55:09;9.90;;;2.10;;
61435;SDS011;47304;47.456;19.160;2023-05-01T13:57:37;5.70;;;1.80;;
61435;SDS011;47304;47.456;19.160;2023-05-01T14:00:05;4.80;;;2.20;;
61435;SDS011;47304;47.456;19.160;2023-05-01T14:02:33;4.50;;;2.00;;
61435;SDS011;47304;47.456;19.160;2023-05-01T14:05:07;3.50;;;1.80;;
61435;SDS011;47304;47.456;19.160;2023-05-01T14:07:38;4.00;;;1.90;;
61435;SDS011;47304;47.456;19.160;2023-05-01T14:10:09;3.20;;;1.70;;
61435;SDS011;47304;47.456;19.160;2023-05-01T14:12:36;4.40;;;1.80;;
61435;SDS011;47304;47.456;19.160;2023-05-01T14:15:04;3.40;;;1.80;;
61435;SDS011;47304;47.456;19.160;2023-05-01T14:17:34;4.10;;;1.90;;
61435;SDS011;47304;47.456;19.160;2023-05-01T14:20:01;5.70;;;1.90;;
61435;SDS011;47304;47.456;19.160;2023-05-01T14:22:39;4.90;;;2.20;;
61435;SDS011;47304;47.456;19.160;2023-05-01T14:25:07;3.90;;;1.60;;
61435;SDS011;47304;47.456;19.160;2023-05-01T14:27:51;4.80;;;1.70;;
61435;SDS011;47304;47.456;19.160;2023-05-01T14:30:26;5.60;;;2.20;;
61435;SDS011;47304;47.456;19.160;2023-05-01T14:32:54;3.50;;;1.60;;
61435;SDS011;47304;47.456;19.160;2023-05-01T14:35:21;4.10;;;1.70;;
61435;SDS011;47304;47.456;19.160;2023-05-01T14:37:49;4.50;;;1.60;;
61435;SDS011;47304;47.456;19.160;2023-05-01T14:40:17;4.90;;;1.60;;
61435;SDS011;47304;47.456;19.160;2023-05-01T14:42:44;4.50;;;1.60;;
61435;SDS011;47304;47.456;19.160;2023-05-01T14:45:14;6.20;;;1.90;;
61435;SDS011;47304;47.456;19.160;2023-05-01T14:47:45;4.30;;;1.70;;
61435;SDS011;47304;47.456;19.160;2023-05-01T14:50:19;6.70;;;2.50;;
61435;SDS011;47304;47.456;19.160;2023-05-01T14:52:54;5.20;;;1.90;;
61435;SDS011;47304;47.456;19.160;2023-05-01T14:55:27;6.00;;;2.30;;
61435;SDS011;47304;47.456;19.160;2023-05-01T14:57:55;3.90;;;1.90;;
61435;SDS011;47304;47.456;19.160;2023-05-01T15:00:23;7.20;;;2.80;;
61435;SDS011;47304;47.456;19.160;2023-05-01T15:02:50;6.50;;;2.50;;
61435;SDS011;47304;47.456;19.160;2023-05-01T15:05:16;3.90;;;1.80;;
61435;SDS011;47304;47.456;19.160;2023-05-01T15:07:43;5.50;;;2.10;;
61435;SDS011;47304;47.456;19.160;2023-05-01T15:10:10;4.90;;;1.90;;
61435;SDS011;47304;47.456;19.160;2023-05-01T15:12:36;5.50;;;2.00;;
61435;SDS011;47304;47.456;19.160;2023-05-01T15:15:03;6.90;;;2.00;;